Time;durP1;ratioP1;P1;durP2;ratioP2;P2;SDS_P1;SDS_P2;PMS_P1;PMS_P2;Temp;Humidity;BMP_temperature;BMP_pressure;BME280_temperature;BME280_humidity;BME280_pressure;Samples;Min_cycle;Max_cycle;Signal;HPM_P1;HPM_P2
2022/05/27 00:01:27;;;;;;;4.80;3.00;;;;;;;16.92;54.93;100401.77;109499;1265;23012;-76
2022/05/27 00:04:02;;;;;;;4.30;3.30;;;;;;;16.89;54.98;100396.32;109456;1264;21985;-76
2022/05/27 00:06:32;;;;;;;5.80;3.40;;;;;;;16.88;55.23;100390.90;108905;1269;22960;-76
2022/05/27 00:09:01;;;;;;;5.40;3.20;;;;;;;16.87;55.16;100392.22;108917;1270;22920;-77
2022/05/27 00:11:31;;;;;;;4.70;3.00;;;;;;;16.88;55.08;100391.84;108874;1264;23131;-77
2022/05/27 00:14:01;;;;;;;5.20;3.00;;;;;;;16.87;55.01;100382.52;108734;1270;22070;-77
2022/05/27 00:16:30;;;;;;;5.80;3.20;;;;;;;16.89;55.16;100375.08;108464;1273;22030;-76
2022/05/27 00:18:59;;;;;;;6.30;3.50;;;;;;;16.93;55.20;100368.02;108404;1274;22002;-76
2022/05/27 00:21:29;;;;;;;8.00;2.80;;;;;;;16.96;55.03;100372.20;108484;1276;23641;-76
2022/05/27 00:24:00;;;;;;;4.20;2.50;;;;;;;16.99;55.02;100367.56;108621;1270;22293;-77
2022/05/27 00:26:29;;;;;;;5.10;3.10;;;;;;;16.98;54.81;100360.37;108838;1270;22054;-76
2022/05/27 00:28:58;;;;;;;5.60;3.10;;;;;;;16.98;54.67;100361.11;108761;1270;22163;-76
2022/05/27 00:31:32;;;;;;;4.00;3.30;;;;;;;16.98;54.44;100356.55;109029;1265;21969;-78
2022/05/27 00:34:01;;;;;;;4.50;3.40;;;;;;;16.97;54.51;100350.73;108993;1267;23010;-77
2022/05/27 00:36:31;;;;;;;4.80;2.70;;;;;;;16.94;54.37;100341.25;109585;1263;21986;-76
2022/05/27 00:39:00;;;;;;;8.90;3.80;;;;;;;16.93;54.35;100335.25;109256;1264;21993;-76
2022/05/27 00:41:30;;;;;;;8.20;3.40;;;;;;;16.92;54.18;100331.60;109327;1264;22391;-76
2022/05/27 00:44:00;;;;;;;5.30;3.30;;;;;;;16.91;54.28;100328.91;109213;1264;22045;-77
2022/05/27 00:46:33;;;;;;;3.30;2.80;;;;;;;16.91;54.32;100327.02;109252;1264;22130;-77
2022/05/27 00:49:12;;;;;;;5.30;3.30;;;;;;;16.89;54.17;100327.92;109215;1267;22001;-76
2022/05/27 00:52:06;;;;;;;6.50;3.00;;;;;;;16.88;54.28;100328.79;109493;1258;23078;-77
2022/05/27 00:54:36;;;;;;;7.70;2.90;;;;;;;16.88;54.32;100322.84;110314;1257;22044;-77
2022/05/27 00:57:22;;;;;;;5.90;2.90;;;;;;;16.87;54.28;100319.92;109295;1263;22119;-77
2022/05/27 01:00:04;;;;;;;9.10;3.00;;;;;;;16.85;54.35;100319.29;109614;1263;21981;-77
2022/05/27 01:02:37;;;;;;;6.50;3.80;;;;;;;16.84;54.55;100315.17;109887;1262;22900;-77
2022/05/27 01:05:13;;;;;;;4.30;3.00;;;;;;;16.84;54.64;100310.36;109614;1262;23070;-78
2022/05/27 01:07:43;;;;;;;4.10;3.30;;;;;;;16.84;54.64;100311.02;109594;1263;22004;-76
2022/05/27 01:10:18;;;;;;;4.10;2.90;;;;;;;16.85;54.77;100308.77;109890;1263;21984;-77
2022/05/27 01:12:56;;;;;;;5.80;2.90;;;;;;;16.86;54.85;100308.69;109119;1267;21983;-77
2022/05/27 01:16:15;;;;;;;5.60;3.40;;;;;;;16.87;54.93;100306.42;109373;1264;23603;-78
2022/05/27 01:21:54;;;;;;;4.30;3.00;;;;;;;16.88;55.10;100303.14;109105;1269;21982;-77
2022/05/27 01:25:11;;;;;;;7.70;3.60;;;;;;;16.87;55.24;100293.17;108854;1269;22063;-77
2022/05/27 01:28:01;;;;;;;5.30;3.00;;;;;;;16.83;55.39;100292.30;108906;1269;22061;-78
2022/05/27 01:30:54;;;;;;;4.80;3.20;;;;;;;16.79;55.47;100292.17;109286;1264;23748;-77
2022/05/27 01:33:39;;;;;;;6.40;3.70;;;;;;;16.77;55.61;100289.30;109638;1263;24988;-77
2022/05/27 01:36:39;;;;;;;5.80;3.60;;;;;;;16.77;55.65;100285.44;109579;1263;21995;-77
2022/05/27 01:39:39;;;;;;;7.30;3.30;;;;;;;16.76;55.71;100285.02;108865;1270;23643;-77
2022/05/27 01:42:34;;;;;;;5.00;3.20;;;;;;;16.73;55.60;100277.34;108874;1269;23061;-78
2022/05/27 01:45:36;;;;;;;6.70;3.20;;;;;;;16.70;55.73;100276.64;108801;1270;21979;-76
2022/05/27 01:48:17;;;;;;;;;;;;;;;16.69;55.83;100268.27;109486;1263;23671;-77
2022/05/27 01:50:54;;;;;;;5.40;3.40;;;;;;;16.63;55.93;100260.95;109591;1263;21994;-78
2022/05/27 01:53:40;;;;;;;8.30;3.50;;;;;;;16.65;55.96;100257.22;109187;1263;24334;-76
2022/05/27 01:56:28;;;;;;;6.30;3.80;;;;;;;16.72;56.08;100253.46;109494;1264;23055;-77
2022/05/27 01:59:08;;;;;;;4.00;3.30;;;;;;;16.77;56.10;100249.04;109552;1263;21972;-78
2022/05/27 02:01:46;;;;;;;3.60;3.30;;;;;;;16.77;55.92;100246.45;109188;1266;21993;-77
2022/05/27 02:04:44;;;;;;;4.80;2.90;;;;;;;16.76;56.07;100245.98;109505;1263;22012;-77
2022/05/27 02:07:21;;;;;;;5.30;3.10;;;;;;;16.72;56.09;100240.32;109613;1263;22030;-77
2022/05/27 02:10:01;;;;;;;5.80;3.50;;;;;;;16.68;56.10;100236.92;109232;1264;22152;-77
2022/05/27 02:12:40;;;;;;;7.90;3.40;;;;;;;16.66;56.20;100233.90;109471;1264;23819;-76
2022/05/27 02:15:26;;;;;;;8.80;3.70;;;;;;;16.66;56.20;100233.08;109212;1264;21993;-76
2022/05/27 02:18:08;;;;;;;4.90;2.90;;;;;;;16.67;56.34;100225.57;110249;1257;21986;-77
2022/05/27 02:20:47;;;;;;;6.00;3.50;;;;;;;16.67;56.36;100223.92;110113;1257;21984;-77
2022/05/27 02:23:30;;;;;;;7.60;3.40;;;;;;;16.69;56.35;100220.30;110340;1257;23728;-77
2022/05/27 02:26:06;;;;;;;7.20;3.60;;;;;;;16.69;56.38;100217.59;110276;1257;22016;-77
2022/05/27 02:28:43;;;;;;;5.00;2.90;;;;;;;16.69;56.42;100214.72;110325;1257;22028;-76
2022/05/27 02:31:29;;;;;;;5.70;3.90;;;;;;;16.71;56.62;100213.98;110075;1257;23078;-76
2022/05/27 02:37:22;;;;;;;4.60;3.20;;;;;;;16.64;56.57;100200.31;110035;1257;22268;-76
2022/05/27 02:39:53;;;;;;;5.00;3.50;;;;;;;16.60;56.72;100197.52;110258;1257;21965;-77
2022/05/27 02:42:41;;;;;;;6.30;3.50;;;;;;;16.57;56.73;100197.75;110307;1257;23770;-77
2022/05/27 02:45:19;;;;;;;4.80;3.50;;;;;;;16.55;56.77;100193.23;109860;1260;23001;-77
2022/05/27 02:48:34;;;;;;;5.30;3.50;;;;;;;16.50;56.77;100192.48;109963;1260;21974;-77
2022/05/27 02:51:39;;;;;;;5.50;2.70;;;;;;;16.47;56.99;100183.77;109914;1260;22125;-77
2022/05/27 02:54:57;;;;;;;5.60;3.00;;;;;;;16.50;57.06;100183.94;109928;1260;24454;-77
2022/05/27 02:57:40;;;;;;;5.00;2.80;;;;;;;16.51;56.98;100177.62;108768;1270;23748;-77
2022/05/27 03:00:18;;;;;;;7.70;3.00;;;;;;;16.52;57.13;100171.67;108729;1272;22000;-77
2022/05/27 03:02:48;;;;;;;4.90;3.10;;;;;;;16.51;57.00;100167.08;108735;1270;22777;-77
2022/05/27 03:05:23;;;;;;;4.80;3.20;;;;;;;16.52;57.07;100167.78;108749;1272;21988;-77
2022/05/27 03:08:28;;;;;;;5.80;3.10;;;;;;;16.52;57.02;100162.02;108813;1270;23978;-77
2022/05/27 03:11:21;;;;;;;4.70;2.80;;;;;;;16.48;56.93;100159.83;108870;1270;23738;-77
2022/05/27 03:14:03;;;;;;;4.20;2.50;;;;;;;16.48;57.05;100159.54;108883;1269;21993;-76
2022/05/27 03:16:52;;;;;;;6.40;3.10;;;;;;;16.48;56.89;100162.91;109124;1270;22921;-76
2022/05/27 03:19:34;;;;;;;5.20;2.80;;;;;;;16.48;56.97;100161.05;108845;1270;21984;-76
2022/05/27 03:22:29;;;;;;;6.40;3.30;;;;;;;16.49;56.91;100162.39;109061;1270;22003;-76
2022/05/27 03:25:19;;;;;;;7.80;2.80;;;;;;;16.51;56.92;100160.55;109063;1269;21990;-76
2022/05/27 03:28:14;;;;;;;5.40;2.80;;;;;;;16.56;56.97;100156.89;108895;1270;22056;-76
2022/05/27 03:31:01;;;;;;;3.40;2.40;;;;;;;16.61;56.84;100155.64;109086;1269;22121;-76
2022/05/27 03:34:04;;;;;;;4.20;2.60;;;;;;;16.62;56.79;100155.67;108913;1267;22139;-76
2022/05/27 03:37:03;;;;;;;7.30;2.90;;;;;;;16.63;56.84;100153.52;110197;1257;21982;-76
2022/05/27 03:40:08;;;;;;;5.60;3.80;;;;;;;16.63;56.81;100152.46;110235;1257;22097;-77
2022/05/27 03:42:40;;;;;;;3.50;2.50;;;;;;;16.64;56.96;100154.39;110209;1257;22909;-77
2022/05/27 03:45:18;;;;;;;5.20;2.30;;;;;;;16.67;56.98;100157.58;110279;1257;22903;-77
2022/05/27 03:47:48;;;;;;;6.50;2.80;;;;;;;16.70;57.03;100153.37;110317;1257;23581;-77
2022/05/27 03:50:23;;;;;;;3.10;2.40;;;;;;;16.73;56.89;100154.11;110451;1257;23730;-76
2022/05/27 03:52:58;;;;;;;7.00;2.90;;;;;;;16.76;56.89;100151.35;110317;1257;22030;-77
2022/05/27 03:55:44;;;;;;;7.10;2.80;;;;;;;16.79;56.87;100145.85;110352;1257;23514;-77
2022/05/27 03:58:17;;;;;;;7.10;2.70;;;;;;;16.83;57.01;100140.66;110364;1257;22041;-76
2022/05/27 04:00:52;;;;;;;5.70;2.80;;;;;;;16.87;57.03;100141.30;109248;1264;22138;-77
2022/05/27 04:03:24;;;;;;;4.50;2.90;;;;;;;16.89;56.93;100138.61;109597;1261;24148;-76
2022/05/27 04:05:59;;;;;;;9.70;6.10;;;;;;;16.89;56.99;100144.82;109660;1261;21982;-77
2022/05/27 04:08:32;;;;;;;4.50;2.70;;;;;;;16.87;57.04;100146.55;109486;1264;22054;-77
2022/05/27 04:11:05;;;;;;;6.20;2.40;;;;;;;16.83;57.36;100145.84;109304;1263;21972;-77
2022/05/27 04:13:40;;;;;;;;;;;;;;;16.82;57.59;100142.06;109369;1264;22075;-77
2022/05/27 04:16:22;;;;;;;5.90;2.70;;;;;;;16.74;57.94;100141.71;109729;1263;23159;-77
2022/05/27 04:19:11;;;;;;;7.60;3.00;;;;;;;16.75;58.36;100142.67;109903;1257;22101;-77
2022/05/27 04:21:55;;;;;;;;;;;;;;;;;;;;;
2022/05/27 04:24:33;;;;;;;5.40;3.00;;;;;;;16.73;58.64;100130.61;109612;1263;22094;-77
2022/05/27 04:27:15;;;;;;;3.70;2.40;;;;;;;16.72;58.84;100134.87;109420;1263;21965;-77
2022/05/27 04:29:51;;;;;;;4.80;2.30;;;;;;;16.69;59.26;100129.74;109165;1267;22622;-78
2022/05/27 04:32:27;;;;;;;4.70;2.70;;;;;;;16.67;59.25;100129.46;108821;1269;22346;-77
2022/05/27 04:34:56;;;;;;;6.20;5.30;;;;;;;16.65;59.28;100129.11;108925;1269;21982;-76
2022/05/27 04:37:27;;;;;;;5.60;3.20;;;;;;;16.65;59.55;100135.42;108951;1267;22113;-78
2022/05/27 04:39:56;;;;;;;6.40;2.50;;;;;;;16.68;59.91;100137.91;108935;1263;21972;-77
2022/05/27 04:42:25;;;;;;;4.00;2.20;;;;;;;16.68;59.95;100136.15;109229;1263;22237;-77
2022/05/27 04:44:55;;;;;;;4.40;2.30;;;;;;;16.70;60.16;100131.58;109237;1264;23095;-76
2022/05/27 04:47:27;;;;;;;5.30;4.00;;;;;;;16.70;60.34;100131.17;109380;1257;22063;-77
2022/05/27 04:49:56;;;;;;;7.20;3.10;;;;;;;16.70;60.46;100131.17;109988;1258;22021;-77
2022/05/27 04:52:30;;;;;;;5.10;3.10;;;;;;;16.69;60.55;100133.05;109831;1260;22832;-76
2022/05/27 04:55:04;;;;;;;5.00;3.20;;;;;;;16.69;60.68;100132.45;110046;1258;22894;-77
2022/05/27 04:57:39;;;;;;;4.10;2.50;;;;;;;16.68;60.72;100129.67;109693;1259;22093;-77
2022/05/27 05:00:21;;;;;;;3.90;2.30;;;;;;;16.68;60.92;100117.32;109704;1258;21976;-76
2022/05/27 05:02:52;;;;;;;6.30;3.80;;;;;;;16.71;61.27;100112.95;109989;1258;23005;-78
2022/05/27 05:05:26;;;;;;;3.10;2.00;;;;;;;16.77;61.30;100113.17;110185;1258;23790;-77
2022/05/27 05:08:07;;;;;;;6.30;3.40;;;;;;;16.82;61.36;100107.49;109743;1258;21979;-77
2022/05/27 05:10:36;;;;;;;9.90;2.60;;;;;;;16.86;61.25;100107.27;109911;1258;21972;-77
2022/05/27 05:13:05;;;;;;;6.50;2.50;;;;;;;16.89;61.20;100111.40;109641;1263;23628;-76
2022/05/27 05:15:35;;;;;;;5.80;2.50;;;;;;;16.91;61.24;100112.29;109581;1263;21978;-77
2022/05/27 05:18:05;;;;;;;5.70;3.90;;;;;;;16.92;61.12;100106.57;109608;1264;22156;-77
2022/05/27 05:20:34;;;;;;;7.40;2.80;;;;;;;16.92;61.00;100102.02;109649;1263;23580;-77
2022/05/27 05:23:04;;;;;;;9.00;3.40;;;;;;;16.93;61.03;100105.09;109482;1264;21978;-77
2022/05/27 05:25:33;;;;;;;7.40;2.90;;;;;;;16.96;61.05;100103.31;109541;1264;22022;-76
2022/05/27 05:28:03;;;;;;;3.20;2.40;;;;;;;16.99;60.92;100106.95;108977;1267;24283;-77
2022/05/27 05:30:36;;;;;;;5.90;2.50;;;;;;;17.00;60.92;100113.66;109157;1264;21984;-77
2022/05/27 05:33:05;;;;;;;5.10;2.40;;;;;;;17.02;61.07;100112.02;109496;1263;21976;-78
2022/05/27 05:35:34;;;;;;;4.10;2.50;;;;;;;17.05;61.08;100112.86;109194;1263;23015;-77
2022/05/27 05:38:05;;;;;;;5.40;2.90;;;;;;;17.05;61.00;100108.38;109587;1263;22067;-77
2022/05/27 05:40:35;;;;;;;4.00;2.00;;;;;;;17.05;61.19;100105.95;109156;1267;21990;-76
2022/05/27 05:43:04;;;;;;;3.40;2.20;;;;;;;17.03;61.13;100112.41;109039;1267;21977;-76
2022/05/27 05:45:33;;;;;;;5.40;2.10;;;;;;;17.02;61.15;100119.15;109015;1264;21977;-76
2022/05/27 05:48:03;;;;;;;5.10;2.10;;;;;;;17.01;61.19;100116.46;109365;1264;22752;-77
2022/05/27 05:50:33;;;;;;;3.70;2.10;;;;;;;17.01;61.30;100117.36;108884;1268;24375;-75
2022/05/27 05:53:02;;;;;;;2.90;2.00;;;;;;;17.04;61.50;100113.67;109052;1269;23722;-77
2022/05/27 05:55:35;;;;;;;5.40;2.90;;;;;;;17.09;61.28;100115.98;108984;1269;23749;-76
2022/05/27 05:58:05;;;;;;;4.50;2.50;;;;;;;17.10;61.10;100122.14;108803;1267;22061;-77
2022/05/27 06:00:34;;;;;;;5.20;3.10;;;;;;;17.06;60.79;100124.85;109228;1266;22048;-77
2022/05/27 06:03:04;;;;;;;6.20;2.10;;;;;;;17.00;60.76;100128.73;109058;1265;21991;-77
2022/05/27 06:05:33;;;;;;;4.10;2.30;;;;;;;16.93;60.84;100134.65;109238;1265;22007;-77
2022/05/27 06:08:02;;;;;;;5.00;2.90;;;;;;;16.86;61.01;100142.23;108946;1260;21985;-78
2022/05/27 06:10:31;;;;;;;9.60;7.40;;;;;;;16.78;61.24;100150.52;109945;1258;21986;-78
2022/05/27 06:13:01;;;;;;;10.20;8.60;;;;;;;16.73;61.42;100160.02;110007;1257;23724;-77
2022/05/27 06:15:30;;;;;;;12.10;10.90;;;;;;;16.60;61.76;100161.08;109606;1263;22992;-79
2022/05/27 06:18:04;;;;;;;19.60;10.50;;;;;;;16.47;62.30;100170.66;109566;1263;22863;-79
2022/05/27 06:20:35;;;;;;;9.00;5.70;;;;;;;16.34;62.78;100167.98;109567;1263;21991;-78
2022/05/27 06:23:06;;;;;;;7.00;5.60;;;;;;;16.22;63.45;100164.99;109203;1267;23586;-79
2022/05/27 06:25:41;;;;;;;8.70;5.80;;;;;;;16.12;64.02;100161.75;109048;1270;21992;-79
2022/05/27 06:36:37;;;;;;;11.80;8.40;;;;;;;15.94;66.24;100151.45;108818;1270;22044;-78
2022/05/27 06:39:07;;;;;;;9.40;8.40;;;;;;;15.96;66.46;100153.30;108729;1270;21949;-78
2022/05/27 06:41:39;;;;;;;9.00;7.60;;;;;;;15.97;66.77;100152.79;109293;1264;21989;-76
2022/05/27 06:44:09;;;;;;;11.70;9.00;;;;;;;15.95;66.92;100151.33;110122;1255;21979;-78
2022/05/27 06:46:39;;;;;;;16.20;14.50;;;;;;;15.92;67.09;100149.19;110318;1257;21962;-78
2022/05/27 06:49:09;;;;;;;15.90;14.30;;;;;;;15.89;67.24;100147.80;110167;1258;24308;-78
2022/05/27 06:51:40;;;;;;;10.30;7.60;;;;;;;15.85;67.39;100152.70;110058;1257;21977;-78
2022/05/27 06:54:10;;;;;;;7.80;6.20;;;;;;;15.83;67.75;100152.20;110333;1257;21965;-77
2022/05/27 06:56:42;;;;;;;7.60;6.20;;;;;;;15.82;67.94;100148.27;110203;1257;22024;-78
2022/05/27 06:59:14;;;;;;;6.30;4.00;;;;;;;15.81;68.25;100144.01;110079;1257;21981;-78
2022/05/27 07:01:44;;;;;;;5.60;3.50;;;;;;;15.78;68.23;100137.05;110087;1257;23593;-78
2022/05/27 07:04:13;;;;;;;4.00;3.40;;;;;;;15.76;68.23;100138.52;110030;1258;21989;-77
2022/05/27 07:06:46;;;;;;;7.40;3.50;;;;;;;15.72;68.38;100144.10;109807;1260;21979;-78
2022/05/27 07:09:21;;;;;;;5.00;3.90;;;;;;;15.68;68.58;100141.27;109931;1261;23621;-79
2022/05/27 07:11:55;;;;;;;5.70;3.40;;;;;;;15.63;68.76;100143.67;109703;1260;22006;-77
2022/05/27 07:14:24;;;;;;;5.20;3.30;;;;;;;15.60;69.04;100145.97;109604;1260;21969;-77
2022/05/27 07:16:55;;;;;;;3.80;3.30;;;;;;;15.60;69.47;100139.98;109250;1264;23583;-77
2022/05/27 07:19:41;;;;;;;4.90;3.70;;;;;;;15.59;69.45;100145.42;109650;1261;21962;-77
2022/05/27 07:22:14;;;;;;;6.00;3.70;;;;;;;15.60;69.86;100148.38;109468;1262;301264;-78
2022/05/27 07:24:44;;;;;;;5.20;2.90;;;;;;;15.61;69.78;100145.59;109042;1268;24347;-77
2022/05/27 07:27:14;;;;;;;4.90;3.50;;;;;;;15.61;69.94;100146.41;108765;1273;23067;-78
2022/05/27 07:29:43;;;;;;;4.00;3.40;;;;;;;15.61;69.99;100147.20;108802;1270;21995;-78
2022/05/27 07:32:14;;;;;;;4.70;3.40;;;;;;;15.61;69.98;100133.35;108818;1269;23545;-78
2022/05/27 07:34:47;;;;;;;4.90;3.60;;;;;;;15.60;70.33;100123.67;108771;1270;22104;-77
2022/05/27 07:37:16;;;;;;;3.40;3.10;;;;;;;15.62;70.78;100121.14;108863;1269;22021;-78
2022/05/27 07:39:45;;;;;;;5.00;3.80;;;;;;;15.67;71.11;100121.65;108918;1270;23136;-78
2022/05/27 07:42:17;;;;;;;4.30;3.90;;;;;;;15.74;71.16;100127.58;108870;1269;23770;-78
2022/05/27 07:44:47;;;;;;;7.50;4.30;;;;;;;15.82;71.20;100127.70;108508;1271;23616;-78
2022/05/27 07:47:18;;;;;;;4.90;4.00;;;;;;;15.89;71.22;100130.31;108802;1272;22003;-80
2022/05/27 07:49:50;;;;;;;4.10;3.70;;;;;;;15.93;71.05;100130.10;108841;1266;22385;-78
2022/05/27 07:52:19;;;;;;;5.10;3.70;;;;;;;15.95;70.77;100138.09;109225;1263;21993;-78
2022/05/27 07:54:50;;;;;;;6.70;3.60;;;;;;;15.94;70.44;100135.96;109459;1263;23065;-78
2022/05/27 07:57:23;;;;;;;3.40;3.10;;;;;;;15.94;70.57;100134.19;109292;1263;22174;-78
2022/05/27 07:59:53;;;;;;;5.20;3.60;;;;;;;15.94;70.49;100144.07;109086;1266;21986;-78
2022/05/27 08:02:23;;;;;;;4.40;3.00;;;;;;;15.94;70.46;100147.18;109507;1263;23612;-79
2022/05/27 08:04:53;;;;;;;4.30;3.10;;;;;;;15.92;70.34;100149.02;108891;1269;22874;-78
2022/05/27 08:07:27;;;;;;;4.20;3.50;;;;;;;15.89;70.30;100143.79;108874;1269;23627;-79
2022/05/27 08:09:56;;;;;;;5.10;3.20;;;;;;;15.89;70.41;100143.63;108943;1267;22771;-79
2022/05/27 08:12:27;;;;;;;9.00;4.90;;;;;;;15.89;70.33;100146.12;109098;1266;22438;-78
2022/05/27 08:14:56;;;;;;;6.30;3.80;;;;;;;15.91;70.59;100148.17;109032;1267;22011;-78
2022/05/27 08:17:28;;;;;;;3.90;3.40;;;;;;;15.94;70.73;100147.71;108910;1267;21999;-77
2022/05/27 08:19:57;;;;;;;4.00;3.40;;;;;;;15.96;70.66;100140.50;108769;1269;22379;-78
2022/05/27 08:22:27;;;;;;;4.60;3.50;;;;;;;15.99;70.56;100143.81;108904;1267;21979;-77
2022/05/27 08:24:56;;;;;;;5.90;3.70;;;;;;;16.01;70.55;100148.31;109110;1267;22372;-78
2022/05/27 08:27:26;;;;;;;6.80;4.30;;;;;;;16.04;70.58;100151.64;108977;1263;23146;-78
2022/05/27 08:29:58;;;;;;;4.80;3.60;;;;;;;16.07;70.45;100155.73;108976;1264;22300;-78
2022/05/27 08:32:30;;;;;;;5.60;4.70;;;;;;;16.08;70.27;100153.95;109043;1263;23796;-76
2022/05/27 08:38:05;;;;;;;4.30;3.80;;;;;;;16.15;70.35;100143.94;109566;1258;23539;-77
2022/05/27 08:41:37;;;;;;;5.00;3.90;;;;;;;16.17;70.41;100137.42;110117;1257;21970;-78
2022/05/27 08:44:30;;;;;;;5.20;3.80;;;;;;;16.18;70.17;100129.01;109301;1266;23096;-79
2022/05/27 08:47:02;;;;;;;5.10;4.00;;;;;;;16.22;70.46;100141.75;109126;1266;22590;-78
2022/05/27 08:49:40;;;;;;;4.80;4.10;;;;;;;16.27;70.37;100156.04;109251;1266;23615;-80
2022/05/27 08:52:33;;;;;;;5.80;5.10;;;;;;;16.30;70.33;100156.29;109411;1267;23022;-79
2022/05/27 09:01:41;;;;;;;4.50;3.50;;;;;;;16.40;70.51;100148.30;109279;1265;21991;-80
2022/05/27 09:04:18;;;;;;;4.80;4.00;;;;;;;16.44;70.23;100149.59;108949;1267;22017;-74
2022/05/27 09:07:06;;;;;;;4.90;4.40;;;;;;;16.47;69.65;100153.26;109174;1267;23055;-74
2022/05/27 09:09:37;;;;;;;6.10;5.20;;;;;;;16.53;69.68;100154.66;108954;1267;22632;-76
2022/05/27 09:12:31;;;;;;;9.70;8.70;;;;;;;16.62;69.69;100153.66;108837;1267;22221;-75
2022/05/27 09:15:17;;;;;;;12.90;11.60;;;;;;;16.69;69.42;100155.67;109135;1267;21991;-76
2022/05/27 09:18:26;;;;;;;9.70;8.80;;;;;;;16.71;68.99;100154.73;109126;1266;22096;-74
2022/05/27 09:21:32;;;;;;;7.30;6.50;;;;;;;16.73;68.96;100152.39;109848;1261;21970;-75
2022/05/27 09:24:39;;;;;;;6.50;5.10;;;;;;;16.72;68.75;100158.98;109913;1261;22100;-75
2022/05/27 09:27:32;;;;;;;10.10;8.30;;;;;;;16.71;68.35;100158.71;109580;1261;22910;-76
2022/05/27 09:30:08;;;;;;;7.00;5.90;;;;;;;16.64;67.90;100159.55;109664;1261;22010;-76
2022/05/27 09:32:53;;;;;;;5.00;4.50;;;;;;;16.60;67.64;100166.79;109810;1260;21985;-76
2022/05/27 09:35:32;;;;;;;5.90;3.90;;;;;;;16.54;67.43;100176.83;109715;1260;22196;-77
2022/05/27 09:38:34;;;;;;;8.80;7.60;;;;;;;16.42;66.38;100189.99;109284;1263;21953;-76
2022/05/27 09:41:30;;;;;;;7.00;4.00;;;;;;;16.20;65.47;100197.60;109595;1263;21971;-77
2022/05/27 09:44:24;;;;;;;3.80;2.40;;;;;;;16.03;65.41;100199.47;108880;1270;23061;-75
2022/05/27 09:46:53;;;;;;;2.90;2.10;;;;;;;15.90;65.03;100201.61;108834;1270;23023;-74
2022/05/27 09:49:23;;;;;;;5.50;2.40;;;;;;;15.81;64.94;100202.94;108704;1270;22191;-76
2022/05/27 09:51:52;;;;;;;4.70;2.10;;;;;;;15.74;64.59;100206.86;108443;1275;22014;-75
2022/05/27 09:54:39;;;;;;;5.10;2.10;;;;;;;15.66;64.49;100209.15;108366;1275;22076;-76
2022/05/27 09:57:13;;;;;;;4.40;1.60;;;;;;;15.55;64.59;100208.30;108641;1270;22552;-76
2022/05/27 09:59:48;;;;;;;3.00;1.40;;;;;;;15.47;64.47;100206.83;108817;1270;21999;-77
2022/05/27 10:02:25;;;;;;;3.20;2.40;;;;;;;15.37;64.44;100208.86;108894;1270;22025;-76
2022/05/27 10:05:30;;;;;;;3.90;2.30;;;;;;;15.30;64.72;100207.16;108907;1270;21983;-75
2022/05/27 10:07:59;;;;;;;5.20;2.80;;;;;;;15.24;64.79;100212.60;108356;1278;22786;-75
2022/05/27 10:10:36;;;;;;;6.80;5.10;;;;;;;15.23;64.84;100223.98;108444;1272;22019;-76
2022/05/27 10:13:28;;;;;;;7.80;6.70;;;;;;;15.20;64.52;100208.70;108665;1272;23638;-75
2022/05/27 10:16:26;;;;;;;6.10;4.60;;;;;;;15.15;64.41;100182.21;108517;1272;23818;-75
2022/05/27 10:19:22;;;;;;;4.00;2.60;;;;;;;15.10;64.57;100168.65;108563;1272;21999;-75
2022/05/27 10:22:04;;;;;;;3.70;2.10;;;;;;;15.09;64.92;100166.96;109028;1267;22164;-78
2022/05/27 10:24:44;;;;;;;4.30;2.20;;;;;;;15.13;65.03;100160.30;109340;1266;22034;-78
2022/05/27 10:27:20;;;;;;;2.50;1.80;;;;;;;15.18;65.18;100140.49;109095;1266;23040;-77
2022/05/27 10:29:54;;;;;;;3.10;2.60;;;;;;;15.10;64.64;100096.86;109109;1266;23730;-76
2022/05/27 10:32:46;;;;;;;6.30;4.10;;;;;;;15.06;65.14;100088.88;109118;1266;21990;-79
2022/05/27 10:35:48;;;;;;;4.40;2.00;;;;;;;15.11;65.93;100126.36;109283;1267;23778;-73
2022/05/27 10:39:00;;;;;;;8.40;3.60;;;;;;;15.17;66.10;100131.73;108879;1270;23160;-77
2022/05/27 10:42:26;;;;;;;3.00;2.50;;;;;;;15.25;66.26;100125.27;108917;1270;22056;-74
2022/05/27 10:45:29;;;;;;;4.50;2.40;;;;;;;15.33;66.17;100128.02;109074;1264;23914;-76
2022/05/27 10:48:37;;;;;;;5.70;2.60;;;;;;;15.37;66.01;100125.19;109120;1263;23695;-76
2022/05/27 10:51:39;;;;;;;6.40;2.30;;;;;;;15.38;65.79;100109.98;109481;1264;22658;-76
2022/05/27 10:54:26;;;;;;;1.90;1.60;;;;;;;15.40;65.83;100111.80;108821;1269;24422;-76
2022/05/27 11:03:28;;;;;;;2.90;1.80;;;;;;;15.55;64.81;100102.38;108913;1270;22326;-76
2022/05/27 11:06:44;;;;;;;4.10;2.50;;;;;;;15.64;64.85;100120.45;108476;1275;22003;-76
2022/05/27 11:09:53;;;;;;;3.00;2.10;;;;;;;15.72;64.53;100117.48;108379;1275;21985;-77
2022/05/27 11:15:55;;;;;;;2.50;1.90;;;;;;;15.74;64.24;100110.70;108588;1272;23079;-76
2022/05/27 11:18:42;;;;;;;2.70;1.70;;;;;;;15.82;64.49;100118.64;108876;1266;24376;-76
2022/05/27 11:21:59;;;;;;;3.60;1.80;;;;;;;15.85;64.06;100112.13;109578;1263;23111;-76
2022/05/27 11:24:42;;;;;;;3.80;2.60;;;;;;;15.92;63.91;100103.50;109021;1265;23040;-77
2022/05/27 11:27:51;;;;;;;3.40;1.70;;;;;;;16.03;63.78;100098.18;109190;1266;21987;-76
2022/05/27 11:30:57;;;;;;;4.60;2.00;;;;;;;16.05;62.83;100072.80;109203;1266;23100;-76
2022/05/27 11:33:59;;;;;;;2.90;2.30;;;;;;;16.08;63.15;100096.64;109301;1265;21976;-74
2022/05/27 11:36:47;;;;;;;2.90;2.10;;;;;;;16.11;62.50;100088.73;108808;1270;22180;-77
2022/05/27 11:39:37;;;;;;;3.70;2.00;;;;;;;16.09;62.17;100082.27;108877;1269;22079;-76
2022/05/27 11:42:35;;;;;;;6.40;1.90;;;;;;;16.11;62.22;100091.80;108834;1269;23628;-76
2022/05/27 11:45:13;;;;;;;3.10;1.50;;;;;;;16.15;62.06;100093.64;108820;1269;21993;-75
2022/05/27 11:48:04;;;;;;;6.30;2.90;;;;;;;16.23;62.02;100087.41;108844;1269;22107;-75
2022/05/27 11:51:08;;;;;;;4.00;1.80;;;;;;;16.33;61.98;100097.20;108816;1269;21990;-75
2022/05/27 11:54:11;;;;;;;8.10;2.40;;;;;;;16.39;61.46;100095.38;108652;1273;22685;-75
2022/05/27 11:57:16;;;;;;;5.90;2.60;;;;;;;16.39;61.23;100093.87;108917;1269;23623;-74
2022/05/27 11:59:57;;;;;;;2.40;1.80;;;;;;;16.40;61.24;100086.33;108754;1269;23025;-75
2022/05/27 12:02:53;;;;;;;9.80;6.50;;;;;;;16.49;61.63;100083.61;109379;1263;23049;-76
2022/05/27 12:05:40;;;;;;;2.90;1.80;;;;;;;16.68;61.84;100077.30;109244;1261;22316;-75
2022/05/27 12:08:28;;;;;;;4.00;2.60;;;;;;;16.91;61.95;100079.36;109560;1264;21972;-75
2022/05/27 12:11:33;;;;;;;3.20;2.30;;;;;;;17.07;60.99;100089.11;109628;1259;21989;-75
2022/05/27 12:14:16;;;;;;;5.10;2.30;;;;;;;17.12;60.24;100086.41;109954;1257;21995;-75
2022/05/27 12:16:50;;;;;;;3.40;1.80;;;;;;;17.13;59.91;100075.10;110107;1257;23689;-75
2022/05/27 12:19:35;;;;;;;2.10;1.40;;;;;;;17.14;59.73;100062.61;110024;1258;22042;-75
2022/05/27 12:22:20;;;;;;;3.70;1.50;;;;;;;17.14;59.16;100060.85;110039;1258;21988;-75
2022/05/27 12:24:56;;;;;;;5.30;2.20;;;;;;;17.13;58.90;100064.39;110102;1257;21980;-74
2022/05/27 12:27:25;;;;;;;4.20;2.00;;;;;;;17.15;58.60;100069.47;109668;1261;23843;-76
2022/05/27 12:29:58;;;;;;;3.00;1.90;;;;;;;17.15;58.40;100065.69;109532;1261;22569;-75
2022/05/27 12:32:29;;;;;;;3.50;2.00;;;;;;;17.16;58.16;100053.28;109567;1261;21972;-75
2022/05/27 12:35:28;;;;;;;2.80;2.00;;;;;;;17.16;58.15;100047.15;109529;1261;21983;-74
2022/05/27 12:38:01;;;;;;;2.70;2.10;;;;;;;17.16;58.08;100055.77;109636;1263;21972;-74
2022/05/27 12:40:30;;;;;;;3.60;1.70;;;;;;;17.14;57.95;100057.70;109701;1261;23631;-75
2022/05/27 12:43:26;;;;;;;3.60;1.90;;;;;;;17.18;58.05;100049.41;109872;1261;21988;-75
2022/05/27 12:46:29;;;;;;;3.70;1.90;;;;;;;17.27;58.01;100042.58;109941;1258;22892;-75
2022/05/27 12:49:40;;;;;;;3.70;2.20;;;;;;;17.37;57.83;100045.33;109899;1258;23713;-76
2022/05/27 12:52:27;;;;;;;5.20;2.00;;;;;;;17.41;57.35;100046.15;110301;1257;23591;-76
2022/05/27 12:55:05;;;;;;;2.90;1.70;;;;;;;17.42;57.16;100038.22;110384;1257;23132;-76